createdAt,value
2022-12-22T00:00:24.365Z,11.07
2022-12-22T00:03:15.202Z,10.63
2022-12-22T00:06:06.432Z,11.45
2022-12-22T00:09:05.062Z,9.77
2022-12-22T00:11:56.629Z,11.10
2022-12-22T00:14:47.522Z,12.45
2022-12-22T00:17:43.584Z,16.70
2022-12-22T00:20:36.325Z,14.85
2022-12-22T00:23:28.487Z,13.43
2022-12-22T00:26:21.062Z,14.75
2022-12-22T00:29:12.441Z,15.68
2022-12-22T00:32:03.936Z,15.85
2022-12-22T00:34:59.683Z,13.82
2022-12-22T00:37:52.464Z,14.07
2022-12-22T00:40:46.393Z,15.00
2022-12-22T00:43:38.649Z,17.15
2022-12-22T00:46:32.602Z,13.80
2022-12-22T00:49:23.927Z,15.98
2022-12-22T00:52:14.909Z,15.50
2022-12-22T00:55:06.045Z,15.93
2022-12-22T00:57:57.365Z,16.10
2022-12-22T01:00:49.724Z,14.63
2022-12-22T01:03:40.806Z,16.38
2022-12-22T01:06:32.080Z,16.50
2022-12-22T01:09:24.907Z,14.23
2022-12-22T01:12:15.941Z,15.32
2022-12-22T01:15:07.080Z,14.25
2022-12-22T01:17:59.234Z,14.90
2022-12-22T01:20:50.877Z,14.27
2022-12-22T01:23:41.894Z,15.18
2022-12-22T01:26:33.479Z,15.95
2022-12-22T01:29:24.611Z,14.02
2022-12-22T01:32:15.705Z,14.25
2022-12-22T01:35:07.790Z,12.82
2022-12-22T01:37:58.828Z,14.02
2022-12-22T01:40:49.435Z,14.00
2022-12-22T01:43:44.656Z,12.18
2022-12-22T01:46:41.188Z,13.98
2022-12-22T01:49:35.925Z,13.52
2022-12-22T01:52:29.625Z,10.80
2022-12-22T01:55:24.503Z,10.00
2022-12-22T01:58:15.659Z,11.75
2022-12-22T02:01:06.789Z,11.43
2022-12-22T02:03:57.833Z,12.20
2022-12-22T02:06:59.721Z,10.15
2022-12-22T02:09:59.258Z,10.48
2022-12-22T02:12:57.906Z,10.68
2022-12-22T02:15:54.967Z,11.68
2022-12-22T02:18:53.136Z,11.73
2022-12-22T02:21:48.518Z,11.63
2022-12-22T02:24:48.705Z,11.50
2022-12-22T02:27:42.383Z,10.63
2022-12-22T02:30:33.564Z,10.88
2022-12-22T02:33:25.198Z,10.40
2022-12-22T02:36:23.909Z,10.90
2022-12-22T02:39:22.953Z,10.80
2022-12-22T02:42:25.281Z,10.45
2022-12-22T02:45:26.596Z,13.23
2022-12-22T02:48:22.827Z,12.25
2022-12-22T02:51:23.592Z,11.23
2022-12-22T02:54:16.084Z,11.73
2022-12-22T02:57:07.855Z,12.50
2022-12-22T02:59:58.797Z,11.93
2022-12-22T03:02:51.480Z,11.07
2022-12-22T03:05:42.115Z,11.75
2022-12-22T03:08:32.904Z,11.65
2022-12-22T03:11:23.855Z,11.90
2022-12-22T03:14:14.549Z,11.15
2022-12-22T03:17:05.188Z,10.55
2022-12-22T03:19:57.144Z,10.00
2022-12-22T03:22:48.194Z,11.10
2022-12-22T03:25:39.253Z,11.48
2022-12-22T03:28:13.156Z,11.45
2022-12-22T03:30:46.802Z,11.05
2022-12-22T03:33:20.247Z,9.27
2022-12-22T03:35:55.467Z,10.32
2022-12-22T03:38:29.599Z,11.30
2022-12-22T03:41:03.216Z,10.82
2022-12-22T03:43:53.793Z,11.25
2022-12-22T03:46:33.132Z,12.68
2022-12-22T03:49:12.626Z,11.57
2022-12-22T03:51:49.269Z,19.05
2022-12-22T03:54:25.045Z,16.02
2022-12-22T03:56:58.568Z,14.25
2022-12-22T03:59:32.194Z,14.93
2022-12-22T04:02:05.799Z,12.77
2022-12-22T04:04:39.379Z,16.52
2022-12-22T04:07:14.295Z,19.08
2022-12-22T04:10:01.586Z,15.43
2022-12-22T04:12:52.412Z,13.55
2022-12-22T04:15:28.403Z,12.07
2022-12-22T04:18:02.113Z,10.45
2022-12-22T04:20:35.662Z,11.38
2022-12-22T04:23:10.793Z,10.30
2022-12-22T04:25:44.266Z,11.27
2022-12-22T04:28:18.366Z,15.55
2022-12-22T04:30:52.186Z,14.15
2022-12-22T04:33:26.037Z,14.43
2022-12-22T04:36:00.225Z,11.73
2022-12-22T04:38:35.537Z,13.68
2022-12-22T04:41:09.724Z,11.13
2022-12-22T04:43:43.253Z,11.95
2022-12-22T04:46:17.166Z,12.40
2022-12-22T04:48:54.689Z,11.30
2022-12-22T04:51:33.144Z,12.07
2022-12-22T04:54:08.041Z,12.18
2022-12-22T04:56:41.852Z,11.60
2022-12-22T04:59:15.321Z,11.85
2022-12-22T05:01:49.190Z,11.95
2022-12-22T05:04:23.935Z,12.00
2022-12-22T05:06:57.691Z,11.50
2022-12-22T05:09:32.985Z,11.40
2022-12-22T05:12:27.177Z,10.52
2022-12-22T05:15:00.994Z,11.55
2022-12-22T05:17:34.508Z,10.35
2022-12-22T05:20:09.804Z,11.45
2022-12-22T05:22:43.375Z,11.63
2022-12-22T05:25:20.098Z,11.18
2022-12-22T05:27:53.547Z,13.27
2022-12-22T05:30:27.355Z,10.88
2022-12-22T05:33:01.072Z,11.27
2022-12-22T05:35:34.571Z,12.55
2022-12-22T05:38:08.343Z,11.98
2022-12-22T05:40:43.278Z,11.65
2022-12-22T05:43:17.071Z,10.85
2022-12-22T05:45:50.926Z,12.60
2022-12-22T05:48:29.655Z,12.63
2022-12-22T05:51:08.971Z,12.00
2022-12-22T05:53:42.916Z,12.20
2022-12-22T05:56:17.976Z,11.27
2022-12-22T05:58:51.457Z,14.02
2022-12-22T06:01:25.302Z,13.35
2022-12-22T06:04:00.563Z,13.13
2022-12-22T06:06:34.526Z,13.52
2022-12-22T06:09:08.079Z,13.40
2022-12-22T06:11:43.206Z,14.68
2022-12-22T06:14:16.753Z,14.15
2022-12-22T06:16:50.266Z,13.45
2022-12-22T06:19:23.779Z,14.02
2022-12-22T06:21:57.292Z,15.20
2022-12-22T06:24:30.870Z,14.05
2022-12-22T06:27:05.901Z,12.65
2022-12-22T06:29:39.686Z,12.93
2022-12-22T06:32:13.414Z,11.93
2022-12-22T06:34:46.893Z,11.40
2022-12-22T06:37:20.560Z,11.35
2022-12-22T06:39:54.049Z,11.43
2022-12-22T06:42:46.113Z,11.73
2022-12-22T06:45:19.837Z,11.10
2022-12-22T06:47:53.362Z,12.90
2022-12-22T06:50:26.894Z,11.65
2022-12-22T06:53:00.419Z,12.55
2022-12-22T06:55:33.905Z,12.25
2022-12-22T06:58:09.095Z,12.15
2022-12-22T07:00:43.241Z,13.13
2022-12-22T07:03:17.117Z,13.13
2022-12-22T07:05:50.815Z,12.23
2022-12-22T07:08:24.359Z,11.85
2022-12-22T07:11:00.942Z,14.55
2022-12-22T07:13:36.560Z,13.10
2022-12-22T07:16:11.606Z,13.23
2022-12-22T07:18:45.266Z,12.70
2022-12-22T07:21:19.169Z,13.77
2022-12-22T07:23:52.642Z,13.57
2022-12-22T07:26:26.148Z,14.38
2022-12-22T07:29:19.796Z,14.70
2022-12-22T07:31:53.504Z,14.82
2022-12-22T07:34:46.033Z,12.57
2022-12-22T07:37:38.311Z,13.32
2022-12-22T07:40:12.696Z,14.85
2022-12-22T07:42:45.184Z,14.10
2022-12-22T07:45:39.456Z,12.88
2022-12-22T07:48:26.788Z,12.07
2022-12-22T07:51:04.288Z,13.05
2022-12-22T07:53:56.478Z,12.75
2022-12-22T07:56:29.961Z,12.88
2022-12-22T07:59:03.773Z,14.13
2022-12-22T08:01:40.099Z,14.80
2022-12-22T08:04:14.319Z,14.77
2022-12-22T08:06:47.859Z,15.85
2022-12-22T08:09:40.081Z,13.40
2022-12-22T08:12:14.760Z,12.55
2022-12-22T08:15:08.335Z,12.32
2022-12-22T08:17:43.287Z,13.85
2022-12-22T08:20:36.739Z,13.10
2022-12-22T08:23:10.209Z,12.77
2022-12-22T08:26:09.101Z,12.98
2022-12-22T08:29:05.801Z,12.98
2022-12-22T08:31:40.954Z,14.40
2022-12-22T08:34:17.655Z,12.38
2022-12-22T08:37:15.176Z,12.05
2022-12-22T08:40:11.147Z,14.20
2022-12-22T08:42:45.025Z,11.55
2022-12-22T08:45:18.813Z,14.15
2022-12-22T08:47:52.430Z,12.45
2022-12-22T08:50:27.558Z,11.40
2022-12-22T08:53:04.645Z,12.13
2022-12-22T08:55:38.184Z,13.18
2022-12-22T08:58:11.733Z,12.15
2022-12-22T09:00:45.841Z,13.82
2022-12-22T09:03:19.461Z,11.77
2022-12-22T09:06:01.210Z,13.27
2022-12-22T09:08:34.815Z,11.73
2022-12-22T09:11:08.538Z,12.98
2022-12-22T09:13:42.275Z,16.42
2022-12-22T09:16:15.855Z,12.75
2022-12-22T09:18:49.629Z,14.63
2022-12-22T09:21:25.971Z,13.32
2022-12-22T09:23:59.815Z,12.93
2022-12-22T09:26:33.917Z,13.45
2022-12-22T09:29:07.489Z,10.73
2022-12-22T09:31:41.809Z,13.68
2022-12-22T09:34:18.442Z,13.70
2022-12-22T09:36:53.587Z,12.98
2022-12-22T09:39:29.355Z,11.63
2022-12-22T09:42:03.288Z,10.15
2022-12-22T09:44:41.755Z,11.02
2022-12-22T09:47:22.202Z,11.82
2022-12-22T09:49:58.453Z,10.10
2022-12-22T09:52:50.663Z,12.30
2022-12-22T09:55:41.326Z,11.85
2022-12-22T09:58:25.952Z,11.07
2022-12-22T10:01:09.732Z,10.75
2022-12-22T10:03:47.647Z,11.02
2022-12-22T10:06:30.389Z,11.38
2022-12-22T10:12:08.269Z,11.75
2022-12-22T10:14:45.298Z,10.52
2022-12-22T10:17:21.432Z,11.75
2022-12-22T10:20:07.755Z,11.63
2022-12-22T10:22:49.385Z,12.20
2022-12-22T10:26:00.046Z,13.35
2022-12-22T10:28:29.052Z,9.68
2022-12-22T10:31:27.807Z,12.93
2022-12-22T10:34:13.060Z,13.23
2022-12-22T10:36:49.606Z,11.48
2022-12-22T10:39:24.896Z,10.93
2022-12-22T10:42:02.634Z,9.82
2022-12-22T10:44:38.749Z,12.93
2022-12-22T10:47:20.753Z,13.20
2022-12-22T10:52:33.157Z,13.98
2022-12-22T10:55:16.969Z,14.40
2022-12-22T10:57:52.463Z,11.88
2022-12-22T11:00:29.173Z,12.73
2022-12-22T11:03:04.634Z,12.27
2022-12-22T11:05:38.724Z,12.85
2022-12-22T11:08:18.795Z,10.07
2022-12-22T11:10:57.639Z,10.63
2022-12-22T11:13:51.634Z,10.82
2022-12-22T11:16:30.742Z,10.07
2022-12-22T11:19:35.848Z,9.73
2022-12-22T11:22:20.121Z,12.05
2022-12-22T11:25:29.276Z,10.88
2022-12-22T11:28:26.715Z,11.25
2022-12-22T11:31:23.794Z,11.40
2022-12-22T11:34:08.250Z,10.63
2022-12-22T11:36:59.355Z,10.65
2022-12-22T11:39:43.776Z,10.85
2022-12-22T11:42:40.735Z,9.93
2022-12-22T11:45:43.575Z,10.40
2022-12-22T11:48:46.577Z,12.40
2022-12-22T11:51:34.191Z,12.25
2022-12-22T11:54:35.416Z,11.95
2022-12-22T11:57:20.384Z,10.23
2022-12-22T12:00:02.792Z,10.57
2022-12-22T12:03:37.731Z,10.98
2022-12-22T12:06:36.816Z,10.32
2022-12-22T12:09:27.779Z,11.60
2022-12-22T12:12:11.901Z,10.45
2022-12-22T12:14:59.972Z,12.98
2022-12-22T12:17:44.926Z,12.65
2022-12-22T12:20:28.009Z,12.88
2022-12-22T12:23:19.746Z,16.50
2022-12-22T12:26:01.890Z,13.10
2022-12-22T12:28:49.268Z,14.35
2022-12-22T12:31:29.329Z,14.60
2022-12-22T12:34:04.362Z,13.38
2022-12-22T12:36:44.777Z,13.00
2022-12-22T12:39:26.271Z,11.35
2022-12-22T12:42:13.734Z,12.55
2022-12-22T12:44:48.380Z,13.10
2022-12-22T12:47:28.527Z,14.18
2022-12-22T12:50:33.932Z,13.13
2022-12-22T12:53:09.960Z,11.77
2022-12-22T12:56:08.425Z,12.18
2022-12-22T12:58:51.730Z,12.63
2022-12-22T13:01:59.649Z,12.68
2022-12-22T13:05:11.807Z,10.73
2022-12-22T13:08:15.675Z,12.95
2022-12-22T13:11:11.608Z,11.80
2022-12-22T13:13:52.231Z,12.32
2022-12-22T13:16:35.146Z,11.93
2022-12-22T13:19:27.664Z,12.00
2022-12-22T13:24:48.945Z,13.25
2022-12-22T13:27:24.344Z,14.07
2022-12-22T13:29:59.441Z,16.17
2022-12-22T13:32:37.110Z,15.57
2022-12-22T13:35:38.657Z,14.10
2022-12-22T13:38:29.372Z,22.70
2022-12-22T13:41:06.391Z,15.95
2022-12-22T13:43:40.818Z,14.88
2022-12-22T13:46:15.931Z,15.95
2022-12-22T13:48:51.296Z,17.42
2022-12-22T13:51:28.420Z,15.63
2022-12-22T13:54:09.564Z,29.27
2022-12-22T13:56:47.735Z,46.90
2022-12-22T13:59:29.629Z,28.10
2022-12-22T14:02:15.563Z,15.53
2022-12-22T14:05:06.551Z,14.13
2022-12-22T14:07:40.377Z,14.70
2022-12-22T14:10:13.999Z,16.52
2022-12-22T14:12:48.701Z,16.05
2022-12-22T14:15:22.689Z,16.85
2022-12-22T14:17:57.758Z,16.95
2022-12-22T14:20:35.726Z,15.18
2022-12-22T14:23:14.412Z,17.27
2022-12-22T14:25:49.429Z,19.48
2022-12-22T14:28:27.051Z,19.08
2022-12-22T14:31:02.289Z,25.02
2022-12-22T14:33:37.308Z,47.72
2022-12-22T14:36:23.177Z,28.85
2022-12-22T14:39:02.347Z,31.00
2022-12-22T14:41:51.972Z,23.67
2022-12-22T14:44:29.332Z,22.98
2022-12-22T14:47:15.537Z,22.15
2022-12-22T14:49:54.007Z,32.35
2022-12-22T14:52:39.590Z,25.92
2022-12-22T14:55:26.632Z,24.00
2022-12-22T14:58:02.536Z,27.20
2022-12-22T15:00:37.953Z,27.02
2022-12-22T15:03:32.226Z,27.83
2022-12-22T15:06:25.894Z,25.45
2022-12-22T15:09:47.330Z,30.70
2022-12-22T15:12:18.948Z,57.25
2022-12-22T15:14:52.506Z,52.95
2022-12-22T15:17:26.724Z,41.60
2022-12-22T15:20:01.157Z,33.22
2022-12-22T15:22:36.183Z,30.52
2022-12-22T15:25:14.407Z,31.20
2022-12-22T15:27:48.284Z,23.98
2022-12-22T15:30:28.640Z,23.67
2022-12-22T15:33:02.576Z,30.90
2022-12-22T15:35:36.457Z,31.45
2022-12-22T15:38:15.010Z,30.98
2022-12-22T15:40:49.364Z,29.42
2022-12-22T15:43:55.955Z,31.33
2022-12-22T15:46:19.017Z,31.83
2022-12-22T15:48:52.770Z,29.65
2022-12-22T15:51:29.348Z,24.33
2022-12-22T15:54:05.265Z,28.92
2022-12-22T15:56:38.983Z,30.73
2022-12-22T15:59:19.593Z,29.48
2022-12-22T16:02:00.283Z,34.78
2022-12-22T16:04:34.573Z,34.90
2022-12-22T16:07:10.512Z,33.25
2022-12-22T16:09:48.669Z,30.33
2022-12-22T16:12:22.318Z,31.98
2022-12-22T16:14:58.905Z,30.73
2022-12-22T16:17:33.203Z,38.15
2022-12-22T16:20:08.222Z,35.38
2022-12-22T16:22:42.660Z,33.65
2022-12-22T16:25:20.091Z,42.83
2022-12-22T16:27:53.941Z,37.95
2022-12-22T16:30:30.338Z,39.50
2022-12-22T16:33:03.910Z,43.85
2022-12-22T16:35:37.662Z,52.17
2022-12-22T16:38:17.915Z,49.05
2022-12-22T16:40:55.053Z,43.72
2022-12-22T16:43:50.487Z,49.70
2022-12-22T16:46:24.945Z,58.90
2022-12-22T16:49:02.153Z,45.28
2022-12-22T16:51:38.941Z,44.75
2022-12-22T16:54:15.616Z,38.83
2022-12-22T16:56:51.949Z,40.97
2022-12-22T16:59:25.784Z,44.25
2022-12-22T17:01:59.839Z,36.97
2022-12-22T17:04:33.991Z,30.70
2022-12-22T17:07:08.267Z,26.90
2022-12-22T17:09:48.662Z,27.83
2022-12-22T17:12:28.673Z,30.00
2022-12-22T17:15:02.921Z,29.67
2022-12-22T17:17:42.151Z,31.20
2022-12-22T17:20:17.214Z,32.55
2022-12-22T17:22:56.108Z,39.10
2022-12-22T17:25:31.652Z,39.33
2022-12-22T17:28:06.721Z,31.52
2022-12-22T17:30:41.171Z,33.80
2022-12-22T17:33:16.795Z,32.45
2022-12-22T17:35:51.351Z,30.33
2022-12-22T17:38:27.130Z,28.55
2022-12-22T17:41:03.211Z,31.30
2022-12-22T17:43:38.171Z,30.63
2022-12-22T17:46:16.521Z,31.63
2022-12-22T17:48:50.803Z,30.13
2022-12-22T17:51:26.425Z,34.47
2022-12-22T17:54:00.525Z,33.78
2022-12-22T17:56:34.351Z,33.13
2022-12-22T17:59:13.018Z,34.35
2022-12-22T18:01:46.762Z,33.33
2022-12-22T18:04:20.392Z,30.45
2022-12-22T18:06:54.033Z,31.50
2022-12-22T18:09:27.862Z,32.38
2022-12-22T18:12:01.373Z,36.58
2022-12-22T18:14:36.341Z,36.63
2022-12-22T18:17:28.602Z,37.28
2022-12-22T18:20:07.783Z,32.85
2022-12-22T18:22:41.465Z,37.15
2022-12-22T18:25:20.951Z,39.55
2022-12-22T18:27:54.478Z,37.60
2022-12-22T18:30:32.298Z,39.15
2022-12-22T18:33:05.977Z,46.33
2022-12-22T18:35:40.569Z,52.95
2022-12-22T18:38:26.463Z,48.78
2022-12-22T18:41:03.247Z,48.20
2022-12-22T18:43:36.892Z,41.17
2022-12-22T18:46:12.659Z,31.35
2022-12-22T18:48:47.314Z,31.70
2022-12-22T18:51:23.101Z,27.65
2022-12-22T18:53:57.240Z,27.20
2022-12-22T18:56:30.823Z,33.53
2022-12-22T18:59:07.235Z,37.45
2022-12-22T19:01:42.473Z,40.95
2022-12-22T19:04:16.218Z,34.63
2022-12-22T19:06:49.820Z,31.80
2022-12-22T19:09:27.004Z,35.80
2022-12-22T19:12:00.640Z,34.33
2022-12-22T19:14:34.313Z,34.60
2022-12-22T19:17:15.567Z,30.80
2022-12-22T19:19:49.632Z,30.95
2022-12-22T19:22:23.231Z,31.25
2022-12-22T19:24:59.001Z,32.30
2022-12-22T19:27:33.124Z,35.40
2022-12-22T19:30:07.935Z,34.33
2022-12-22T19:32:47.878Z,36.45
2022-12-22T19:35:22.968Z,34.95
2022-12-22T19:37:56.892Z,37.92
2022-12-22T19:40:34.006Z,41.60
2022-12-22T19:43:09.791Z,42.13
2022-12-22T19:45:43.493Z,42.13
2022-12-22T19:48:20.776Z,43.22
2022-12-22T19:50:55.235Z,40.50
2022-12-22T19:53:28.937Z,40.28
2022-12-22T19:56:04.551Z,28.48
2022-12-22T19:58:41.157Z,32.50
2022-12-22T20:01:56.802Z,36.58
2022-12-22T20:04:32.089Z,38.70
2022-12-22T20:07:10.738Z,37.47
2022-12-22T20:09:44.347Z,37.38
2022-12-22T20:12:26.243Z,46.83
2022-12-22T20:15:00.160Z,39.65
2022-12-22T20:17:33.742Z,39.28
2022-12-22T20:20:15.398Z,34.10
2022-12-22T20:22:52.735Z,40.25
2022-12-22T20:25:28.783Z,41.40
2022-12-22T20:28:02.474Z,43.47
2022-12-22T20:30:36.105Z,37.08
2022-12-22T20:33:09.923Z,33.40
2022-12-22T20:35:45.804Z,30.30
2022-12-22T20:38:21.504Z,29.02
2022-12-22T20:40:55.152Z,28.90
2022-12-22T20:43:31.365Z,24.25
2022-12-22T20:46:12.809Z,24.10
2022-12-22T20:48:49.409Z,22.77
2022-12-22T20:51:27.047Z,24.13
2022-12-22T20:54:01.059Z,26.17
2022-12-22T20:56:36.603Z,23.88
2022-12-22T20:59:15.140Z,23.55
2022-12-22T21:01:50.182Z,30.05
2022-12-22T21:04:23.882Z,27.33
2022-12-22T21:06:58.935Z,26.55
2022-12-22T21:09:32.545Z,36.05
2022-12-22T21:12:06.486Z,40.30
2022-12-22T21:14:40.077Z,37.58
2022-12-22T21:17:17.377Z,34.67
2022-12-22T21:19:51.064Z,28.80
2022-12-22T21:22:26.188Z,27.15
2022-12-22T21:24:59.736Z,25.75
2022-12-22T21:27:33.411Z,24.27
2022-12-22T21:30:17.276Z,23.98
2022-12-22T21:32:51.771Z,28.90
2022-12-22T21:35:28.845Z,30.65
2022-12-22T21:38:04.244Z,28.60
2022-12-22T21:40:37.936Z,29.02
2022-12-22T21:43:12.948Z,30.63
2022-12-22T21:45:46.790Z,36.75
2022-12-22T21:48:22.023Z,35.13
2022-12-22T21:50:56.888Z,30.50
2022-12-22T21:53:31.905Z,27.25
2022-12-22T21:56:13.864Z,22.10
2022-12-22T21:58:47.400Z,24.02
2022-12-22T22:01:20.947Z,23.90
2022-12-22T22:03:54.488Z,21.42
2022-12-22T22:06:28.041Z,21.52
2022-12-22T22:09:04.795Z,22.85
2022-12-22T22:11:59.046Z,26.33
2022-12-22T22:14:32.783Z,23.85
2022-12-22T22:17:06.301Z,25.58
2022-12-22T22:19:39.828Z,25.10
2022-12-22T22:22:14.129Z,24.92
2022-12-22T22:24:49.118Z,26.33
2022-12-22T22:27:22.729Z,27.13
2022-12-22T22:29:56.217Z,27.55
2022-12-22T22:32:29.801Z,25.73
2022-12-22T22:35:03.351Z,24.65
2022-12-22T22:37:37.614Z,24.35
2022-12-22T22:40:15.424Z,27.35
2022-12-22T22:42:49.504Z,25.08
2022-12-22T22:45:24.520Z,23.02
2022-12-22T22:47:58.521Z,21.73
2022-12-22T22:50:32.076Z,21.08
2022-12-22T22:53:05.557Z,22.15
2022-12-22T22:55:40.679Z,25.67
2022-12-22T22:58:14.231Z,23.20
2022-12-22T23:00:47.792Z,23.80
2022-12-22T23:03:21.399Z,26.98
2022-12-22T23:06:06.110Z,25.92
2022-12-22T23:08:39.930Z,29.60
2022-12-22T23:11:16.326Z,27.52
2022-12-22T23:13:50.064Z,29.73
2022-12-22T23:16:24.511Z,26.75
2022-12-22T23:18:58.129Z,25.60
2022-12-22T23:21:31.648Z,25.88
2022-12-22T23:24:05.540Z,24.92
2022-12-22T23:26:40.693Z,28.35
2022-12-22T23:29:14.257Z,22.33
2022-12-22T23:31:47.876Z,24.27
2022-12-22T23:34:21.452Z,22.17
2022-12-22T23:36:55.348Z,22.00
2022-12-22T23:39:29.152Z,20.50
2022-12-22T23:42:04.371Z,23.27
2022-12-22T23:44:37.963Z,22.00
2022-12-22T23:47:11.642Z,22.73
2022-12-22T23:49:45.260Z,21.88
2022-12-22T23:52:18.835Z,24.17
2022-12-22T23:54:52.400Z,24.23
2022-12-22T23:57:27.301Z,24.77
